sensor_id;sensor_type;location;lat;lon;timestamp;pressure;altitude;pressure_sealevel;temperature;humidity
82187;BME280;71776;52.042;8.160;2023-07-31T00:01:07;100240.13;;;17.14;80.94
82187;BME280;71776;52.042;8.160;2023-07-31T00:03:34;100230.66;;;17.10;81.35
82187;BME280;71776;52.042;8.160;2023-07-31T00:06:00;100228.81;;;17.13;81.64
82187;BME280;71776;52.042;8.160;2023-07-31T00:08:25;100233.34;;;17.08;81.33
82187;BME280;71776;52.042;8.160;2023-07-31T00:10:51;100228.03;;;17.11;81.66
82187;BME280;71776;52.042;8.160;2023-07-31T00:13:17;100227.78;;;17.17;81.61
82187;BME280;71776;52.042;8.160;2023-07-31T00:15:42;100226.59;;;17.03;81.94
82187;BME280;71776;52.042;8.160;2023-07-31T00:18:07;100221.88;;;16.89;82.71
82187;BME280;71776;52.042;8.160;2023-07-31T00:20:34;100227.50;;;17.02;82.17
82187;BME280;71776;52.042;8.160;2023-07-31T00:23:00;100231.84;;;17.03;82.69
82187;BME280;71776;52.042;8.160;2023-07-31T00:25:25;100230.81;;;16.84;83.93
82187;BME280;71776;52.042;8.160;2023-07-31T00:27:51;100232.84;;;16.99;82.78
82187;BME280;71776;52.042;8.160;2023-07-31T00:30:17;100228.13;;;17.08;82.23
82187;BME280;71776;52.042;8.160;2023-07-31T00:32:42;100229.44;;;16.97;83.27
82187;BME280;71776;52.042;8.160;2023-07-31T00:35:08;100223.81;;;17.07;81.91
82187;BME280;71776;52.042;8.160;2023-07-31T00:37:35;100230.97;;;16.79;83.69
82187;BME280;71776;52.042;8.160;2023-07-31T00:40:00;100221.47;;;16.76;84.31
82187;BME280;71776;52.042;8.160;2023-07-31T00:42:27;100219.34;;;16.63;83.96
82187;BME280;71776;52.042;8.160;2023-07-31T00:44:52;100220.97;;;16.67;84.68
82187;BME280;71776;52.042;8.160;2023-07-31T00:47:18;100208.22;;;16.58;84.79
82187;BME280;71776;52.042;8.160;2023-07-31T00:49:44;100217.66;;;16.62;84.40
82187;BME280;71776;52.042;8.160;2023-07-31T00:52:10;100205.66;;;16.56;83.87
82187;BME280;71776;52.042;8.160;2023-07-31T00:54:37;100208.06;;;16.62;83.71
82187;BME280;71776;52.042;8.160;2023-07-31T00:57:03;100205.00;;;16.51;84.74
82187;BME280;71776;52.042;8.160;2023-07-31T00:59:28;100202.31;;;16.53;84.90
82187;BME280;71776;52.042;8.160;2023-07-31T01:01:54;100202.50;;;16.47;85.05
82187;BME280;71776;52.042;8.160;2023-07-31T01:04:20;100199.22;;;16.65;83.20
82187;BME280;71776;52.042;8.160;2023-07-31T01:06:54;100206.75;;;16.49;84.14
82187;BME280;71776;52.042;8.160;2023-07-31T01:09:29;100195.19;;;16.56;83.83
82187;BME280;71776;52.042;8.160;2023-07-31T01:12:01;100198.44;;;16.63;82.71
82187;BME280;71776;52.042;8.160;2023-07-31T01:14:27;100198.50;;;16.37;83.58
82187;BME280;71776;52.042;8.160;2023-07-31T01:16:54;100192.38;;;16.38;83.54
82187;BME280;71776;52.042;8.160;2023-07-31T01:19:22;100199.28;;;16.39;83.83
82187;BME280;71776;52.042;8.160;2023-07-31T01:21:59;100200.69;;;16.24;83.46
82187;BME280;71776;52.042;8.160;2023-07-31T01:24:35;100197.97;;;16.27;83.91
82187;BME280;71776;52.042;8.160;2023-07-31T01:27:07;100197.28;;;16.22;83.79
82187;BME280;71776;52.042;8.160;2023-07-31T01:29:38;100193.59;;;16.28;84.02
82187;BME280;71776;52.042;8.160;2023-07-31T01:32:08;100192.25;;;16.41;82.65
82187;BME280;71776;52.042;8.160;2023-07-31T01:34:35;100194.03;;;16.40;81.72
82187;BME280;71776;52.042;8.160;2023-07-31T01:37:02;100203.41;;;16.21;82.55
82187;BME280;71776;52.042;8.160;2023-07-31T01:39:28;100195.66;;;16.18;82.84
82187;BME280;71776;52.042;8.160;2023-07-31T01:41:53;100192.00;;;16.24;82.36
82187;BME280;71776;52.042;8.160;2023-07-31T01:44:20;100185.19;;;16.20;82.18
82187;BME280;71776;52.042;8.160;2023-07-31T01:46:46;100189.59;;;16.18;81.78
82187;BME280;71776;52.042;8.160;2023-07-31T01:49:11;100172.22;;;16.17;82.47
82187;BME280;71776;52.042;8.160;2023-07-31T01:51:37;100175.25;;;16.04;83.27
82187;BME280;71776;52.042;8.160;2023-07-31T01:54:02;100173.78;;;15.96;83.24
82187;BME280;71776;52.042;8.160;2023-07-31T01:56:28;100175.25;;;16.04;83.24
82187;BME280;71776;52.042;8.160;2023-07-31T01:58:54;100168.53;;;15.97;83.76
82187;BME280;71776;52.042;8.160;2023-07-31T02:01:20;100164.44;;;15.90;83.41
82187;BME280;71776;52.042;8.160;2023-07-31T02:03:46;100168.78;;;15.90;83.53
82187;BME280;71776;52.042;8.160;2023-07-31T02:06:11;100167.84;;;15.92;83.55
82187;BME280;71776;52.042;8.160;2023-07-31T02:08:54;100162.88;;;15.85;84.15
82187;BME280;71776;52.042;8.160;2023-07-31T02:11:20;100163.81;;;15.82;83.98
82187;BME280;71776;52.042;8.160;2023-07-31T02:13:46;100163.44;;;15.68;85.05
82187;BME280;71776;52.042;8.160;2023-07-31T02:16:12;100153.38;;;15.82;84.14
82187;BME280;71776;52.042;8.160;2023-07-31T02:18:39;100122.06;;;15.56;85.18
82187;BME280;71776;52.042;8.160;2023-07-31T02:21:04;100153.75;;;15.72;84.79
82187;BME280;71776;52.042;8.160;2023-07-31T02:23:30;100146.97;;;15.66;85.41
82187;BME280;71776;52.042;8.160;2023-07-31T02:25:55;100151.28;;;15.67;86.10
82187;BME280;71776;52.042;8.160;2023-07-31T02:28:21;100113.75;;;15.45;85.73
82187;BME280;71776;52.042;8.160;2023-07-31T02:30:46;100142.88;;;15.59;86.01
82187;BME280;71776;52.042;8.160;2023-07-31T02:33:12;100146.28;;;15.61;86.39
82187;BME280;71776;52.042;8.160;2023-07-31T02:35:39;100137.84;;;15.53;86.65
82187;BME280;71776;52.042;8.160;2023-07-31T02:38:05;100140.25;;;15.59;86.33
82187;BME280;71776;52.042;8.160;2023-07-31T02:40:30;100140.41;;;15.55;87.20
82187;BME280;71776;52.042;8.160;2023-07-31T02:42:56;100136.78;;;15.59;86.56
82187;BME280;71776;52.042;8.160;2023-07-31T02:45:21;100134.31;;;15.54;86.50
82187;BME280;71776;52.042;8.160;2023-07-31T02:47:47;100140.16;;;15.62;86.26
82187;BME280;71776;52.042;8.160;2023-07-31T02:50:12;100129.88;;;15.58;86.38
82187;BME280;71776;52.042;8.160;2023-07-31T02:52:40;100139.03;;;15.69;85.76
82187;BME280;71776;52.042;8.160;2023-07-31T02:55:06;100130.34;;;15.69;87.08
82187;BME280;71776;52.042;8.160;2023-07-31T02:57:32;100132.19;;;15.65;86.18
82187;BME280;71776;52.042;8.160;2023-07-31T02:59:58;100130.31;;;15.70;85.94
82187;BME280;71776;52.042;8.160;2023-07-31T03:02:23;100135.44;;;15.73;85.61
82187;BME280;71776;52.042;8.160;2023-07-31T03:04:49;100132.19;;;15.65;85.87
82187;BME280;71776;52.042;8.160;2023-07-31T03:07:14;100131.59;;;15.83;85.36
82187;BME280;71776;52.042;8.160;2023-07-31T03:09:41;100128.25;;;15.78;85.90
82187;BME280;71776;52.042;8.160;2023-07-31T03:12:08;100130.94;;;15.77;86.30
82187;BME280;71776;52.042;8.160;2023-07-31T03:14:33;100112.72;;;16.00;85.60
82187;BME280;71776;52.042;8.160;2023-07-31T03:16:59;100105.84;;;15.97;86.10
82187;BME280;71776;52.042;8.160;2023-07-31T03:19:25;100081.97;;;15.83;86.21
82187;BME280;71776;52.042;8.160;2023-07-31T03:21:50;100109.72;;;16.11;85.91
82187;BME280;71776;52.042;8.160;2023-07-31T03:24:16;100114.94;;;16.11;85.99
82187;BME280;71776;52.042;8.160;2023-07-31T03:26:43;100104.75;;;16.03;86.43
82187;BME280;71776;52.042;8.160;2023-07-31T03:29:08;100107.63;;;16.20;86.15
82187;BME280;71776;52.042;8.160;2023-07-31T03:31:34;100108.38;;;16.24;86.39
82187;BME280;71776;52.042;8.160;2023-07-31T03:33:59;100116.31;;;16.21;86.36
82187;BME280;71776;52.042;8.160;2023-07-31T03:36:25;100111.03;;;16.22;86.54
82187;BME280;71776;52.042;8.160;2023-07-31T03:38:52;100093.53;;;16.24;86.22
82187;BME280;71776;52.042;8.160;2023-07-31T03:41:17;100094.63;;;16.42;85.56
82187;BME280;71776;52.042;8.160;2023-07-31T03:43:45;100100.81;;;16.39;85.96
82187;BME280;71776;52.042;8.160;2023-07-31T03:46:11;100085.34;;;16.58;85.17
82187;BME280;71776;52.042;8.160;2023-07-31T03:48:37;100083.38;;;16.40;85.26
82187;BME280;71776;52.042;8.160;2023-07-31T03:51:02;100100.88;;;16.38;85.57
82187;BME280;71776;52.042;8.160;2023-07-31T03:53:28;100098.91;;;16.43;85.85
82187;BME280;71776;52.042;8.160;2023-07-31T03:55:54;100094.72;;;16.39;86.03
82187;BME280;71776;52.042;8.160;2023-07-31T03:58:19;100090.41;;;16.38;85.43
82187;BME280;71776;52.042;8.160;2023-07-31T04:00:47;100108.47;;;16.44;85.16
82187;BME280;71776;52.042;8.160;2023-07-31T04:03:12;100109.28;;;16.46;85.41
82187;BME280;71776;52.042;8.160;2023-07-31T04:05:38;100103.50;;;16.38;85.99
82187;BME280;71776;52.042;8.160;2023-07-31T04:08:04;100100.97;;;16.35;85.42
82187;BME280;71776;52.042;8.160;2023-07-31T04:10:29;100104.56;;;16.32;85.88
82187;BME280;71776;52.042;8.160;2023-07-31T04:12:55;100106.13;;;16.36;85.51
82187;BME280;71776;52.042;8.160;2023-07-31T04:15:23;100106.84;;;16.41;85.29
82187;BME280;71776;52.042;8.160;2023-07-31T04:17:50;100097.25;;;16.42;85.32
82187;BME280;71776;52.042;8.160;2023-07-31T04:20:16;100110.91;;;16.25;86.03
82187;BME280;71776;52.042;8.160;2023-07-31T04:22:41;100109.72;;;16.34;85.65
82187;BME280;71776;52.042;8.160;2023-07-31T04:25:07;100108.47;;;16.44;85.08
82187;BME280;71776;52.042;8.160;2023-07-31T04:27:33;100112.22;;;16.37;85.33
82187;BME280;71776;52.042;8.160;2023-07-31T04:30:00;100108.03;;;16.33;85.38
82187;BME280;71776;52.042;8.160;2023-07-31T04:32:27;100098.59;;;16.52;84.31
82187;BME280;71776;52.042;8.160;2023-07-31T04:34:54;100097.81;;;16.27;84.85
82187;BME280;71776;52.042;8.160;2023-07-31T04:37:20;100105.59;;;16.28;85.10
82187;BME280;71776;52.042;8.160;2023-07-31T04:39:46;100104.03;;;16.23;85.17
82187;BME280;71776;52.042;8.160;2023-07-31T04:42:11;100106.03;;;16.39;84.22
82187;BME280;71776;52.042;8.160;2023-07-31T04:44:39;100096.84;;;16.29;84.89
82187;BME280;71776;52.042;8.160;2023-07-31T04:47:08;100107.09;;;16.34;84.90
82187;BME280;71776;52.042;8.160;2023-07-31T04:49:33;100104.22;;;16.41;84.04
82187;BME280;71776;52.042;8.160;2023-07-31T04:52:01;100093.31;;;16.30;84.49
82187;BME280;71776;52.042;8.160;2023-07-31T04:54:26;100110.13;;;16.46;83.90
82187;BME280;71776;52.042;8.160;2023-07-31T04:56:52;100103.50;;;16.38;83.57
82187;BME280;71776;52.042;8.160;2023-07-31T04:59:17;100099.59;;;16.48;83.36
82187;BME280;71776;52.042;8.160;2023-07-31T05:01:43;100109.34;;;16.44;82.66
82187;BME280;71776;52.042;8.160;2023-07-31T05:04:09;100112.91;;;16.42;83.25
82187;BME280;71776;52.042;8.160;2023-07-31T05:06:34;100109.34;;;16.44;82.53
82187;BME280;71776;52.042;8.160;2023-07-31T05:09:01;100110.94;;;16.48;82.37
82187;BME280;71776;52.042;8.160;2023-07-31T05:11:27;100095.16;;;16.50;82.81
82187;BME280;71776;52.042;8.160;2023-07-31T05:13:52;100102.47;;;16.42;83.31
82187;BME280;71776;52.042;8.160;2023-07-31T05:16:18;100103.47;;;16.62;81.51
82187;BME280;71776;52.042;8.160;2023-07-31T05:18:44;100105.22;;;16.62;81.80
82187;BME280;71776;52.042;8.160;2023-07-31T05:21:09;100104.47;;;16.58;81.87
82187;BME280;71776;52.042;8.160;2023-07-31T05:23:35;100108.03;;;16.79;81.12
82187;BME280;71776;52.042;8.160;2023-07-31T05:26:04;100109.97;;;16.74;80.60
82187;BME280;71776;52.042;8.160;2023-07-31T05:28:29;100097.38;;;16.62;80.62
82187;BME280;71776;52.042;8.160;2023-07-31T05:30:59;100116.13;;;16.73;80.49
82187;BME280;71776;52.042;8.160;2023-07-31T05:33:24;100117.50;;;16.60;81.30
82187;BME280;71776;52.042;8.160;2023-07-31T05:35:49;100110.78;;;16.76;80.89
82187;BME280;71776;52.042;8.160;2023-07-31T05:38:15;100114.19;;;16.55;81.79
82187;BME280;71776;52.042;8.160;2023-07-31T05:40:42;100107.53;;;16.46;82.25
82187;BME280;71776;52.042;8.160;2023-07-31T05:43:09;100099.31;;;16.57;81.87
82187;BME280;71776;52.042;8.160;2023-07-31T05:45:35;100105.31;;;16.59;81.80
82187;BME280;71776;52.042;8.160;2023-07-31T05:48:00;100108.69;;;16.62;82.23
82187;BME280;71776;52.042;8.160;2023-07-31T05:50:27;100100.06;;;16.60;81.72
82187;BME280;71776;52.042;8.160;2023-07-31T05:52:53;100102.03;;;16.54;82.05
82187;BME280;71776;52.042;8.160;2023-07-31T05:55:18;100098.88;;;16.67;81.93
82187;BME280;71776;52.042;8.160;2023-07-31T05:57:44;100097.47;;;16.59;81.94
82187;BME280;71776;52.042;8.160;2023-07-31T06:00:12;100094.81;;;16.60;82.06
82187;BME280;71776;52.042;8.160;2023-07-31T06:02:38;100069.56;;;16.59;81.66
82187;BME280;71776;52.042;8.160;2023-07-31T06:05:04;100085.00;;;16.65;82.00
82187;BME280;71776;52.042;8.160;2023-07-31T06:07:30;100089.00;;;16.75;81.78
82187;BME280;71776;52.042;8.160;2023-07-31T06:09:56;100082.41;;;16.65;82.05
82187;BME280;71776;52.042;8.160;2023-07-31T06:12:22;100093.63;;;16.69;81.89
82187;BME280;71776;52.042;8.160;2023-07-31T06:14:47;100090.47;;;16.83;80.94
82187;BME280;71776;52.042;8.160;2023-07-31T06:17:14;100086.91;;;16.84;81.34
82187;BME280;71776;52.042;8.160;2023-07-31T06:19:40;100096.25;;;16.91;80.99
82187;BME280;71776;52.042;8.160;2023-07-31T06:22:05;100095.91;;;16.76;81.39
82187;BME280;71776;52.042;8.160;2023-07-31T06:24:31;100090.25;;;16.65;82.48
82187;BME280;71776;52.042;8.160;2023-07-31T06:26:56;100082.91;;;16.75;81.61
82187;BME280;71776;52.042;8.160;2023-07-31T06:29:22;100060.88;;;16.59;81.28
82187;BME280;71776;52.042;8.160;2023-07-31T06:31:47;100083.00;;;16.72;81.26
82187;BME280;71776;52.042;8.160;2023-07-31T06:34:14;100083.19;;;16.67;82.03
82187;BME280;71776;52.042;8.160;2023-07-31T06:36:40;100084.06;;;16.68;82.54
82187;BME280;71776;52.042;8.160;2023-07-31T06:39:05;100064.59;;;16.75;81.89
82187;BME280;71776;52.042;8.160;2023-07-31T06:41:31;100068.06;;;16.75;81.98
82187;BME280;71776;52.042;8.160;2023-07-31T06:43:56;100067.03;;;16.80;82.59
82187;BME280;71776;52.042;8.160;2023-07-31T06:46:22;100073.28;;;16.97;81.87
82187;BME280;71776;52.042;8.160;2023-07-31T06:48:47;100074.59;;;16.87;81.67
82187;BME280;71776;52.042;8.160;2023-07-31T06:51:14;100063.09;;;16.91;82.27
82187;BME280;71776;52.042;8.160;2023-07-31T06:53:40;100059.53;;;16.92;82.74
82187;BME280;71776;52.042;8.160;2023-07-31T06:56:05;100063.63;;;16.99;82.54
82187;BME280;71776;52.042;8.160;2023-07-31T06:58:35;100061.97;;;17.18;81.82
82187;BME280;71776;52.042;8.160;2023-07-31T07:01:00;100080.34;;;17.17;81.64
82187;BME280;71776;52.042;8.160;2023-07-31T07:03:25;100074.75;;;17.04;82.75
82187;BME280;71776;52.042;8.160;2023-07-31T07:05:51;100075.50;;;16.86;83.47
82187;BME280;71776;52.042;8.160;2023-07-31T07:08:18;100082.88;;;16.98;82.89
82187;BME280;71776;52.042;8.160;2023-07-31T07:10:44;100084.00;;;16.91;82.96
82187;BME280;71776;52.042;8.160;2023-07-31T07:13:09;100082.13;;;16.95;82.99
82187;BME280;71776;52.042;8.160;2023-07-31T07:15:35;100074.53;;;16.89;83.27
82187;BME280;71776;52.042;8.160;2023-07-31T07:18:01;100082.28;;;16.90;83.40
82187;BME280;71776;52.042;8.160;2023-07-31T07:20:26;100079.81;;;16.87;83.67
82187;BME280;71776;52.042;8.160;2023-07-31T07:22:52;100076.78;;;16.76;84.26
82187;BME280;71776;52.042;8.160;2023-07-31T07:25:18;100049.75;;;16.75;83.56
82187;BME280;71776;52.042;8.160;2023-07-31T07:27:44;100070.38;;;16.83;84.89
82187;BME280;71776;52.042;8.160;2023-07-31T07:30:10;100056.03;;;16.93;84.13
82187;BME280;71776;52.042;8.160;2023-07-31T07:32:35;100062.72;;;17.00;83.81
82187;BME280;71776;52.042;8.160;2023-07-31T07:35:01;100055.78;;;16.99;84.31
82187;BME280;71776;52.042;8.160;2023-07-31T07:37:27;100056.75;;;16.97;84.32
82187;BME280;71776;52.042;8.160;2023-07-31T07:39:52;100053.53;;;16.90;84.90
82187;BME280;71776;52.042;8.160;2023-07-31T07:42:19;100060.75;;;16.84;85.26
82187;BME280;71776;52.042;8.160;2023-07-31T07:44:44;100050.00;;;16.91;84.65
82187;BME280;71776;52.042;8.160;2023-07-31T07:47:10;100042.69;;;16.99;84.77
82187;BME280;71776;52.042;8.160;2023-07-31T07:49:36;100049.81;;;16.96;84.88
82187;BME280;71776;52.042;8.160;2023-07-31T07:52:01;100054.91;;;16.99;85.54
82187;BME280;71776;52.042;8.160;2023-07-31T07:54:27;100051.34;;;17.21;84.48
82187;BME280;71776;52.042;8.160;2023-07-31T07:56:53;100054.34;;;17.34;83.86
82187;BME280;71776;52.042;8.160;2023-07-31T07:59:20;100044.03;;;17.51;83.41
82187;BME280;71776;52.042;8.160;2023-07-31T08:01:46;100041.34;;;17.53;83.56
82187;BME280;71776;52.042;8.160;2023-07-31T08:04:11;100039.59;;;17.31;84.60
82187;BME280;71776;52.042;8.160;2023-07-31T08:06:36;100037.63;;;17.36;84.67
82187;BME280;71776;52.042;8.160;2023-07-31T08:09:02;100025.66;;;17.31;84.61
82187;BME280;71776;52.042;8.160;2023-07-31T08:11:28;100019.03;;;17.22;85.28
82187;BME280;71776;52.042;8.160;2023-07-31T08:14:07;100016.81;;;17.33;85.39
82187;BME280;71776;52.042;8.160;2023-07-31T08:16:33;100007.03;;;17.38;84.91
82187;BME280;71776;52.042;8.160;2023-07-31T08:18:59;100013.75;;;17.44;85.39
82187;BME280;71776;52.042;8.160;2023-07-31T08:21:25;100013.63;;;17.67;84.30
82187;BME280;71776;52.042;8.160;2023-07-31T08:23:50;100001.81;;;17.77;84.02
82187;BME280;71776;52.042;8.160;2023-07-31T08:26:17;99997.34;;;17.61;85.03
82187;BME280;71776;52.042;8.160;2023-07-31T08:28:43;100005.50;;;17.73;84.83
82187;BME280;71776;52.042;8.160;2023-07-31T08:31:08;99990.13;;;17.66;85.04
82187;BME280;71776;52.042;8.160;2023-07-31T08:33:35;99995.44;;;18.03;84.07
82187;BME280;71776;52.042;8.160;2023-07-31T08:36:01;99992.94;;;18.00;83.52
82187;BME280;71776;52.042;8.160;2023-07-31T08:38:26;99988.75;;;17.96;82.79
82187;BME280;71776;52.042;8.160;2023-07-31T08:40:52;99994.25;;;17.71;83.81
82187;BME280;71776;52.042;8.160;2023-07-31T08:43:18;99993.44;;;17.89;83.16
82187;BME280;71776;52.042;8.160;2023-07-31T08:45:47;99989.50;;;17.79;84.04
82187;BME280;71776;52.042;8.160;2023-07-31T08:48:15;99992.19;;;17.78;83.88
82187;BME280;71776;52.042;8.160;2023-07-31T08:50:42;99986.31;;;17.73;84.26
82187;BME280;71776;52.042;8.160;2023-07-31T08:53:08;99980.84;;;17.59;84.87
82187;BME280;71776;52.042;8.160;2023-07-31T08:55:34;99985.72;;;17.66;84.80
82187;BME280;71776;52.042;8.160;2023-07-31T08:58:01;99984.34;;;17.78;83.99
82187;BME280;71776;52.042;8.160;2023-07-31T09:00:29;99983.66;;;17.74;84.90
82187;BME280;71776;52.042;8.160;2023-07-31T09:02:59;99987.03;;;17.76;84.46
82187;BME280;71776;52.042;8.160;2023-07-31T09:05:26;99978.13;;;17.80;84.67
82187;BME280;71776;52.042;8.160;2023-07-31T09:07:55;99983.44;;;17.79;84.94
82187;BME280;71776;52.042;8.160;2023-07-31T09:10:21;99955.88;;;17.89;83.54
82187;BME280;71776;52.042;8.160;2023-07-31T09:12:48;99973.81;;;17.98;83.67
82187;BME280;71776;52.042;8.160;2023-07-31T09:15:14;99974.50;;;18.01;83.31
82187;BME280;71776;52.042;8.160;2023-07-31T09:17:40;99968.84;;;18.10;84.04
82187;BME280;71776;52.042;8.160;2023-07-31T09:20:23;99975.00;;;18.28;83.14
82187;BME280;71776;52.042;8.160;2023-07-31T09:22:49;99970.75;;;18.44;82.34
82187;BME280;71776;52.042;8.160;2023-07-31T09:25:17;99971.59;;;18.26;82.43
82187;BME280;71776;52.042;8.160;2023-07-31T09:27:47;99967.31;;;18.25;82.86
82187;BME280;71776;52.042;8.160;2023-07-31T09:30:12;99969.19;;;18.40;82.10
82187;BME280;71776;52.042;8.160;2023-07-31T09:32:38;99976.28;;;18.19;82.07
82187;BME280;71776;52.042;8.160;2023-07-31T09:35:13;99970.47;;;18.13;82.50
82187;BME280;71776;52.042;8.160;2023-07-31T09:37:39;99961.56;;;17.98;83.07
82187;BME280;71776;52.042;8.160;2023-07-31T09:40:05;99968.78;;;18.12;82.02
82187;BME280;71776;52.042;8.160;2023-07-31T09:42:34;99966.72;;;18.00;82.33
82187;BME280;71776;52.042;8.160;2023-07-31T09:45:07;99963.59;;;18.10;82.33
82187;BME280;71776;52.042;8.160;2023-07-31T09:47:32;99972.88;;;18.17;81.96
82187;BME280;71776;52.042;8.160;2023-07-31T09:49:58;99967.72;;;18.16;81.55
82187;BME280;71776;52.042;8.160;2023-07-31T09:52:25;99965.22;;;18.13;81.90
82187;BME280;71776;52.042;8.160;2023-07-31T09:54:51;99961.84;;;18.11;82.25
82187;BME280;71776;52.042;8.160;2023-07-31T09:57:17;99962.53;;;18.14;82.44
82187;BME280;71776;52.042;8.160;2023-07-31T09:59:45;99958.56;;;18.06;82.08
82187;BME280;71776;52.042;8.160;2023-07-31T10:02:15;99955.53;;;17.96;83.21
82187;BME280;71776;52.042;8.160;2023-07-31T10:04:47;99953.53;;;18.01;82.91
82187;BME280;71776;52.042;8.160;2023-07-31T10:07:17;99963.00;;;18.05;82.12
82187;BME280;71776;52.042;8.160;2023-07-31T10:09:44;99948.81;;;18.09;82.96
82187;BME280;71776;52.042;8.160;2023-07-31T10:12:12;99944.19;;;17.77;83.73
82187;BME280;71776;52.042;8.160;2023-07-31T10:14:41;99949.28;;;17.99;82.85
82187;BME280;71776;52.042;8.160;2023-07-31T10:17:08;99952.78;;;17.81;82.48
82187;BME280;71776;52.042;8.160;2023-07-31T10:19:34;99953.47;;;17.84;82.48
82187;BME280;71776;52.042;8.160;2023-07-31T10:22:00;99955.59;;;17.95;82.03
82187;BME280;71776;52.042;8.160;2023-07-31T10:24:28;99961.16;;;18.07;81.60
82187;BME280;71776;52.042;8.160;2023-07-31T10:26:57;99959.84;;;17.97;81.51
82187;BME280;71776;52.042;8.160;2023-07-31T10:29:25;99959.56;;;18.03;82.26
82187;BME280;71776;52.042;8.160;2023-07-31T10:31:52;99954.78;;;18.30;81.55
82187;BME280;71776;52.042;8.160;2023-07-31T10:34:19;99941.25;;;18.39;81.30
82187;BME280;71776;52.042;8.160;2023-07-31T10:36:45;99941.00;;;18.27;82.03
82187;BME280;71776;52.042;8.160;2023-07-31T10:39:35;99944.47;;;18.27;81.22
82187;BME280;71776;52.042;8.160;2023-07-31T10:42:10;99935.06;;;18.23;81.76
82187;BME280;71776;52.042;8.160;2023-07-31T10:44:46;99925.34;;;18.25;80.99
82187;BME280;71776;52.042;8.160;2023-07-31T10:47:14;99942.06;;;18.23;81.56
82187;BME280;71776;52.042;8.160;2023-07-31T10:49:44;99934.59;;;18.51;80.21
82187;BME280;71776;52.042;8.160;2023-07-31T10:52:11;99941.16;;;18.59;80.25
82187;BME280;71776;52.042;8.160;2023-07-31T10:54:38;99935.00;;;18.60;79.89
82187;BME280;71776;52.042;8.160;2023-07-31T10:57:19;99928.66;;;18.29;81.76
82187;BME280;71776;52.042;8.160;2023-07-31T10:59:44;99934.69;;;18.31;81.82
82187;BME280;71776;52.042;8.160;2023-07-31T11:02:24;99939.31;;;18.26;81.33
82187;BME280;71776;52.042;8.160;2023-07-31T11:07:49;99928.94;;;18.41;81.64
82187;BME280;71776;52.042;8.160;2023-07-31T11:10:17;99922.97;;;18.56;80.71
82187;BME280;71776;52.042;8.160;2023-07-31T11:12:42;99929.66;;;18.45;81.54
82187;BME280;71776;52.042;8.160;2023-07-31T11:15:09;99920.13;;;18.42;82.44
82187;BME280;71776;52.042;8.160;2023-07-31T11:17:38;99926.50;;;18.55;81.70
82187;BME280;71776;52.042;8.160;2023-07-31T11:20:04;99919.03;;;18.48;81.47
82187;BME280;71776;52.042;8.160;2023-07-31T11:22:30;99914.97;;;18.41;82.05
82187;BME280;71776;52.042;8.160;2023-07-31T11:24:57;99921.50;;;18.32;81.93
82187;BME280;71776;52.042;8.160;2023-07-31T11:27:27;99925.56;;;18.20;82.48
82187;BME280;71776;52.042;8.160;2023-07-31T11:29:52;99924.97;;;18.33;82.48
82187;BME280;71776;52.042;8.160;2023-07-31T11:32:18;99918.03;;;18.32;82.59
82187;BME280;71776;52.042;8.160;2023-07-31T11:34:51;99933.03;;;18.28;83.06
82187;BME280;71776;52.042;8.160;2023-07-31T11:37:17;99924.97;;;18.33;82.97
82187;BME280;71776;52.042;8.160;2023-07-31T11:39:42;99926.69;;;18.34;82.18
82187;BME280;71776;52.042;8.160;2023-07-31T11:42:09;99919.91;;;18.11;84.06
82187;BME280;71776;52.042;8.160;2023-07-31T11:44:39;99920.16;;;18.23;83.37
82187;BME280;71776;52.042;8.160;2023-07-31T11:47:05;99918.69;;;18.37;84.02
82187;BME280;71776;52.042;8.160;2023-07-31T11:49:32;99915.09;;;18.56;82.89
82187;BME280;71776;52.042;8.160;2023-07-31T11:51:57;99922.44;;;18.50;83.37
82187;BME280;71776;52.042;8.160;2023-07-31T11:54:23;99914.78;;;18.45;83.28
82187;BME280;71776;52.042;8.160;2023-07-31T11:56:49;99908.06;;;18.21;83.86
82187;BME280;71776;52.042;8.160;2023-07-31T11:59:16;99903.94;;;18.15;84.20
82187;BME280;71776;52.042;8.160;2023-07-31T12:01:41;99906.16;;;18.06;85.31
82187;BME280;71776;52.042;8.160;2023-07-31T12:04:07;99906.44;;;18.00;84.96
82187;BME280;71776;52.042;8.160;2023-07-31T12:06:33;99906.44;;;18.00;84.96
82187;BME280;71776;52.042;8.160;2023-07-31T12:09:01;99906.59;;;17.97;84.60
82187;BME280;71776;52.042;8.160;2023-07-31T12:11:27;99905.50;;;18.19;84.02
82187;BME280;71776;52.042;8.160;2023-07-31T12:13:52;99902.63;;;18.07;84.43
82187;BME280;71776;52.042;8.160;2023-07-31T12:16:20;99901.25;;;18.17;84.23
82187;BME280;71776;52.042;8.160;2023-07-31T12:18:45;99898.22;;;18.07;85.13
82187;BME280;71776;52.042;8.160;2023-07-31T12:21:14;99902.25;;;18.14;84.89
82187;BME280;71776;52.042;8.160;2023-07-31T12:23:40;99897.94;;;18.13;84.54
82187;BME280;71776;52.042;8.160;2023-07-31T12:26:07;99901.66;;;18.27;84.35
82187;BME280;71776;52.042;8.160;2023-07-31T12:28:35;99906.91;;;18.08;84.72
82187;BME280;71776;52.042;8.160;2023-07-31T12:31:01;99907.00;;;18.06;85.32
82187;BME280;71776;52.042;8.160;2023-07-31T12:33:32;99907.22;;;18.02;85.32
82187;BME280;71776;52.042;8.160;2023-07-31T12:36:00;99896.59;;;18.05;85.19
82187;BME280;71776;52.042;8.160;2023-07-31T12:38:26;99892.59;;;18.15;84.49
82187;BME280;71776;52.042;8.160;2023-07-31T12:40:51;99882.28;;;18.12;83.97
82187;BME280;71776;52.042;8.160;2023-07-31T12:43:17;99899.06;;;18.08;84.36
82187;BME280;71776;52.042;8.160;2023-07-31T12:45:43;99890.97;;;18.31;82.97
82187;BME280;71776;52.042;8.160;2023-07-31T12:48:12;99900.13;;;18.23;83.65
82187;BME280;71776;52.042;8.160;2023-07-31T12:50:39;99884.41;;;18.40;83.06
82187;BME280;71776;52.042;8.160;2023-07-31T12:53:05;99887.38;;;18.51;83.23